weather.gov     
National Weather Service

Terminal Aerodrome Forecast
NWS Homepage
This page is being discontinued on March 12, 2014.
The same data is available at this site. Please update your bookmarks.
Thank you, and we apologize for the inconvenience.
Please send an email to SR-SRH.Webmaster@noaa.gov with any concerns.


Current Version
Previous Version:    01  02  03  04  05  06  07  08  09  10  11  12  13  14  15  16  17  18  19  20  21  22  23  24  25  26  27  
[Printable]
317
FTUS43 KOAX 191120
TAFOFK
TAF
KOFK 191120Z 1912/2012 17015G22KT P6SM BKN250 WS020/20042KT
     FM191500 20013KT P6SM SCT040 BKN250
     FM192000 22009KT P6SM BKN090
     FM200500 VRB04KT P6SM OVC050=


317
FTUS43 KOAX 191120
TAFOFK
TAF
KOFK 191120Z 1912/2012 17015G22KT P6SM BKN250 WS020/20042KT
     FM191500 20013KT P6SM SCT040 BKN250
     FM192000 22009KT P6SM BKN090
     FM200500 VRB04KT P6SM OVC050=




U.S. Dept. of Commerce
NOAA National Weather Service
1325 East West Highway
Silver Spring, MD 20910
E-mail: w-nws.webmaster@noaa.gov
Page last modified: May 16, 2007
NATIONAL WEATHER SERVICE: for Safety, for Work, for Fun - FOR LIFE